Time;durP1;ratioP1;P1;durP2;ratioP2;P2;SDS_P1;SDS_P2;PMS_P1;PMS_P2;Temp;Humidity;BMP_temperature;BMP_pressure;BME280_temperature;BME280_humidity;BME280_pressure;Samples;Min_cycle;Max_cycle;Signal;HPM_P1;HPM_P2
2022/01/08 00:00:06;;;;;;;10.38;4.78;;;;;;;;;;5011423;28;20030;-68
2022/01/08 00:02:31;;;;;;;13.05;4.43;;;;;;;;;;5009929;28;20053;-68
2022/01/08 00:04:58;;;;;;;12.60;5.57;;;;;;;;;;5011003;28;20072;-68
2022/01/08 00:07:23;;;;;;;12.77;5.55;;;;;;;;;;5010732;28;20022;-68
2022/01/08 00:09:48;;;;;;;10.35;4.60;;;;;;;;;;5019418;28;20025;-70
2022/01/08 00:12:14;;;;;;;14.07;5.10;;;;;;;;;;5011048;28;20393;-68
2022/01/08 00:14:39;;;;;;;12.20;5.10;;;;;;;;;;5009526;28;20275;-68
2022/01/08 00:17:04;;;;;;;9.85;4.95;;;;;;;;;;5010483;28;20391;-68
2022/01/08 00:19:30;;;;;;;16.00;5.35;;;;;;;;;;5010356;28;20065;-68
2022/01/08 00:21:55;;;;;;;14.65;5.35;;;;;;;;;;5006328;28;20030;-67
2022/01/08 00:24:20;;;;;;;11.82;4.78;;;;;;;;;;5011409;28;20018;-68
2022/01/08 00:26:45;;;;;;;19.40;4.90;;;;;;;;;;5020805;28;20054;-68
2022/01/08 00:29:10;;;;;;;16.80;5.47;;;;;;;;;;5010898;28;20379;-68
2022/01/08 00:31:36;;;;;;;10.80;4.50;;;;;;;;;;5010395;28;20030;-68
2022/01/08 00:34:01;;;;;;;7.50;4.00;;;;;;;;;;5010580;28;20049;-67
2022/01/08 00:36:26;;;;;;;8.97;4.07;;;;;;;;;;5016222;28;20030;-68
2022/01/08 00:38:51;;;;;;;9.05;4.30;;;;;;;;;;5013331;28;20691;-69
2022/01/08 00:41:16;;;;;;;12.23;3.95;;;;;;;;;;5012937;28;20087;-68
2022/01/08 00:43:42;;;;;;;9.23;4.83;;;;;;;;;;5013154;28;20030;-68
2022/01/08 00:46:07;;;;;;;6.63;3.70;;;;;;;;;;5019144;28;20292;-68
2022/01/08 00:48:32;;;;;;;9.48;4.22;;;;;;;;;;5013564;28;20261;-68
2022/01/08 00:50:57;;;;;;;13.85;4.38;;;;;;;;;;5018484;28;20018;-68
2022/01/08 00:53:22;;;;;;;9.35;4.43;;;;;;;;;;5016292;28;20018;-69
2022/01/08 00:55:47;;;;;;;15.10;4.23;;;;;;;;;;5021722;28;20082;-68
2022/01/08 00:58:13;;;;;;;11.00;4.57;;;;;;;;;;5032044;28;20264;-68
2022/01/08 01:00:41;;;;;;;10.75;3.95;;;;;;;;;;5023408;28;20029;-68
2022/01/08 01:03:06;;;;;;;9.13;3.47;;;;;;;;;;5012499;28;20033;-69
2022/01/08 01:05:31;;;;;;;9.65;4.32;;;;;;;;;;5012873;28;20409;-69
2022/01/08 01:07:56;;;;;;;13.07;4.07;;;;;;;;;;5016567;28;20458;-68
2022/01/08 01:10:21;;;;;;;11.87;4.47;;;;;;;;;;5020284;28;20022;-68
2022/01/08 01:12:47;;;;;;;10.10;3.60;;;;;;;;;;5012119;28;20340;-68
2022/01/08 01:15:13;;;;;;;9.40;3.97;;;;;;;;;;5017140;28;20030;-67
2022/01/08 01:17:39;;;;;;;9.65;3.50;;;;;;;;;;5011777;28;20026;-68
2022/01/08 01:20:05;;;;;;;15.00;4.43;;;;;;;;;;5011456;28;20025;-67
2022/01/08 01:22:40;;;;;;;7.90;3.80;;;;;;;;;;5011788;28;20076;-68
2022/01/08 01:25:07;;;;;;;11.88;3.85;;;;;;;;;;5010175;28;20022;-67
2022/01/08 01:30:19;;;;;;;;;;;;;;;;;;5022164;28;20018;-68
2022/01/08 01:41:19;;;;;;;14.00;3.97;;;;;;;;;;5011547;28;20091;-68
2022/01/08 01:49:06;;;;;;;13.35;3.92;;;;;;;;;;5017182;28;20072;-68
2022/01/08 01:51:31;;;;;;;8.10;4.05;;;;;;;;;;5010639;28;20532;-68
2022/01/08 01:53:57;;;;;;;9.55;3.92;;;;;;;;;;5022787;28;20034;-68
2022/01/08 01:56:22;;;;;;;12.25;3.90;;;;;;;;;;5011456;28;20076;-68
2022/01/08 01:58:47;;;;;;;13.23;4.50;;;;;;;;;;5015372;28;20579;-68
2022/01/08 02:01:13;;;;;;;13.80;4.40;;;;;;;;;;5014599;28;20037;-68
2022/01/08 02:03:39;;;;;;;9.07;4.35;;;;;;;;;;5022356;28;20089;-68
2022/01/08 02:06:05;;;;;;;16.25;4.15;;;;;;;;;;5014276;28;20021;-68
2022/01/08 02:08:30;;;;;;;14.18;4.30;;;;;;;;;;5018838;28;20043;-68
2022/01/08 02:10:55;;;;;;;8.82;4.55;;;;;;;;;;5010521;28;20026;-69
2022/01/08 02:13:21;;;;;;;14.45;4.45;;;;;;;;;;5010163;28;20018;-68
2022/01/08 02:15:50;;;;;;;7.93;4.35;;;;;;;;;;5010120;28;20117;-68
2022/01/08 02:18:15;;;;;;;15.18;4.80;;;;;;;;;;5008214;28;20021;-68
2022/01/08 02:20:40;;;;;;;15.70;5.03;;;;;;;;;;5010331;28;20056;-68
2022/01/08 02:23:05;;;;;;;9.70;4.30;;;;;;;;;;5008723;28;20374;-68
2022/01/08 02:25:30;;;;;;;19.88;5.95;;;;;;;;;;5020132;28;20091;-68
2022/01/08 02:27:55;;;;;;;10.87;4.77;;;;;;;;;;5012589;28;20034;-68
2022/01/08 02:30:21;;;;;;;13.23;5.15;;;;;;;;;;5030985;28;20272;-68
2022/01/08 02:32:46;;;;;;;12.98;4.55;;;;;;;;;;5014460;28;20073;-68
2022/01/08 02:35:11;;;;;;;12.68;5.72;;;;;;;;;;5011333;28;20030;-68
2022/01/08 02:37:36;;;;;;;15.18;5.60;;;;;;;;;;5009744;28;20018;-68
2022/01/08 02:40:02;;;;;;;18.77;5.55;;;;;;;;;;5010582;28;20443;-68
2022/01/08 02:42:36;;;;;;;18.17;5.13;;;;;;;;;;5010996;28;20026;-68
2022/01/08 02:45:02;;;;;;;11.07;4.85;;;;;;;;;;5009837;28;20461;-67
2022/01/08 02:47:27;;;;;;;13.02;4.72;;;;;;;;;;5016654;28;20068;-68
2022/01/08 02:49:53;;;;;;;10.37;4.80;;;;;;;;;;5019549;28;20033;-68
2022/01/08 02:52:19;;;;;;;9.82;5.07;;;;;;;;;;5010295;28;20245;-68
2022/01/08 02:54:44;;;;;;;10.23;4.32;;;;;;;;;;5009980;28;20021;-68
2022/01/08 02:57:09;;;;;;;11.53;5.30;;;;;;;;;;5019772;28;20044;-68
2022/01/08 02:59:34;;;;;;;11.60;5.05;;;;;;;;;;5011138;28;20268;-68
2022/01/08 03:01:59;;;;;;;10.65;5.45;;;;;;;;;;5010427;28;20061;-69
2022/01/08 03:04:25;;;;;;;14.23;5.60;;;;;;;;;;5009345;28;20022;-70
2022/01/08 03:06:50;;;;;;;18.58;5.30;;;;;;;;;;5010371;28;20034;-68
2022/01/08 03:09:15;;;;;;;16.05;6.70;;;;;;;;;;5043017;23;20041;-67
2022/01/08 03:11:42;;;;;;;18.58;6.10;;;;;;;;;;5029729;28;20029;-67
2022/01/08 03:14:07;;;;;;;15.70;6.57;;;;;;;;;;5030247;28;20021;-66
2022/01/08 03:16:33;;;;;;;20.90;6.13;;;;;;;;;;5033473;28;20059;-67
2022/01/08 03:18:58;;;;;;;22.65;6.68;;;;;;;;;;5031285;28;20022;-67
2022/01/08 03:21:23;;;;;;;19.45;7.13;;;;;;;;;;5013384;28;20458;-67
2022/01/08 03:23:56;;;;;;;18.90;7.38;;;;;;;;;;5014424;28;20359;-67
2022/01/08 03:26:23;;;;;;;15.77;6.47;;;;;;;;;;5013502;28;20026;-67
2022/01/08 03:28:48;;;;;;;24.95;8.13;;;;;;;;;;5013195;28;20025;-67
2022/01/08 03:31:14;;;;;;;31.15;8.30;;;;;;;;;;5013655;28;20026;-67
2022/01/08 03:33:40;;;;;;;22.05;7.50;;;;;;;;;;5013159;28;20052;-67
2022/01/08 03:36:05;;;;;;;19.63;7.35;;;;;;;;;;5013351;28;20049;-66
2022/01/08 03:38:30;;;;;;;26.77;7.55;;;;;;;;;;5013097;28;20036;-67
2022/01/08 03:40:56;;;;;;;20.33;8.40;;;;;;;;;;5013401;28;20026;-67
2022/01/08 03:43:21;;;;;;;21.83;8.93;;;;;;;;;;5013523;28;20030;-67
2022/01/08 03:45:46;;;;;;;18.80;8.10;;;;;;;;;;5013354;28;20025;-67
2022/01/08 03:50:39;;;;;;;24.63;9.38;;;;;;;;;;5011717;28;20052;-67
2022/01/08 03:53:04;;;;;;;16.40;8.35;;;;;;;;;;5012792;28;20022;-66
2022/01/08 03:55:29;;;;;;;33.83;11.07;;;;;;;;;;5012673;28;20390;-67
2022/01/08 03:57:55;;;;;;;29.43;9.90;;;;;;;;;;5012763;28;20026;-66
2022/01/08 04:00:20;;;;;;;27.25;9.32;;;;;;;;;;5012814;28;20261;-67
2022/01/08 04:02:45;;;;;;;25.08;8.85;;;;;;;;;;5013253;28;20054;-67
2022/01/08 04:05:10;;;;;;;25.52;8.77;;;;;;;;;;5012692;28;20022;-67
2022/01/08 04:07:35;;;;;;;28.23;7.72;;;;;;;;;;5012672;28;20033;-66
2022/01/08 04:10:01;;;;;;;20.05;7.40;;;;;;;;;;5012649;28;20040;-67
2022/01/08 04:12:39;;;;;;;22.35;6.70;;;;;;;;;;5012780;28;20080;-67
2022/01/08 04:15:09;;;;;;;18.38;7.20;;;;;;;;;;5011968;28;20033;-67
2022/01/08 04:17:34;;;;;;;16.33;7.20;;;;;;;;;;5012568;28;20029;-66
2022/01/08 04:19:59;;;;;;;21.35;7.65;;;;;;;;;;5012017;28;20108;-66
2022/01/08 04:22:26;;;;;;;19.63;7.55;;;;;;;;;;5012258;28;20053;-67
2022/01/08 04:24:51;;;;;;;22.27;6.93;;;;;;;;;;5012332;28;20029;-67
2022/01/08 04:27:16;;;;;;;15.15;6.85;;;;;;;;;;5011494;28;20386;-67
2022/01/08 04:29:41;;;;;;;28.00;10.75;;;;;;;;;;5012177;28;20033;-67
2022/01/08 04:32:06;;;;;;;18.88;6.93;;;;;;;;;;5012357;28;20017;-66
2022/01/08 04:34:32;;;;;;;22.83;7.35;;;;;;;;;;5011872;28;20525;-66
2022/01/08 04:36:57;;;;;;;24.42;8.02;;;;;;;;;;5012157;28;20080;-66
2022/01/08 04:39:22;;;;;;;23.48;7.75;;;;;;;;;;5011717;28;20032;-66
2022/01/08 04:41:47;;;;;;;24.52;9.80;;;;;;;;;;5012195;28;20109;-66
2022/01/08 04:44:13;;;;;;;18.70;8.07;;;;;;;;;;5012098;28;20022;-66
2022/01/08 04:46:40;;;;;;;27.23;10.00;;;;;;;;;;5012165;28;20076;-66
2022/01/08 04:49:05;;;;;;;25.00;9.55;;;;;;;;;;5011971;28;20018;-66
2022/01/08 04:51:31;;;;;;;33.72;10.63;;;;;;;;;;5012156;28;20033;-66
2022/01/08 04:53:56;;;;;;;32.78;11.43;;;;;;;;;;5012121;28;20537;-66
2022/01/08 04:56:21;;;;;;;30.10;11.13;;;;;;;;;;5011305;28;20370;-66
2022/01/08 04:58:46;;;;;;;29.77;10.20;;;;;;;;;;5011632;28;20026;-66
2022/01/08 05:01:13;;;;;;;24.65;9.90;;;;;;;;;;5010415;28;20045;-66
2022/01/08 05:03:38;;;;;;;30.75;11.98;;;;;;;;;;5011056;28;20124;-66
2022/01/08 05:06:03;;;;;;;28.77;11.80;;;;;;;;;;5011612;28;20133;-67
2022/01/08 05:08:28;;;;;;;31.97;12.00;;;;;;;;;;5011383;28;20028;-66
2022/01/08 05:10:53;;;;;;;34.05;12.65;;;;;;;;;;5011660;28;20272;-66
2022/01/08 05:13:19;;;;;;;34.05;12.07;;;;;;;;;;5011208;28;20026;-66
2022/01/08 05:15:44;;;;;;;25.58;12.18;;;;;;;;;;5011744;28;20030;-66
2022/01/08 05:18:10;;;;;;;35.70;15.23;;;;;;;;;;5011241;28;20149;-66
2022/01/08 05:20:38;;;;;;;31.23;12.32;;;;;;;;;;5011464;28;20117;-67
2022/01/08 05:23:04;;;;;;;24.95;10.60;;;;;;;;;;5010045;28;20026;-67
2022/01/08 05:25:30;;;;;;;32.40;12.52;;;;;;;;;;5011639;28;20030;-66
2022/01/08 05:27:55;;;;;;;33.85;11.43;;;;;;;;;;5010832;28;20096;-66
2022/01/08 05:30:21;;;;;;;28.33;11.95;;;;;;;;;;5010708;28;20398;-66
2022/01/08 05:32:47;;;;;;;37.38;13.10;;;;;;;;;;5011666;28;20021;-67
2022/01/08 05:35:12;;;;;;;30.48;11.65;;;;;;;;;;5011244;28;20037;-67
2022/01/08 05:37:37;;;;;;;31.50;11.43;;;;;;;;;;5010447;28;20474;-66
2022/01/08 05:40:03;;;;;;;31.02;12.07;;;;;;;;;;5009877;28;20038;-66
2022/01/08 05:42:28;;;;;;;38.60;11.43;;;;;;;;;;5010034;28;20041;-66
2022/01/08 05:44:53;;;;;;;37.85;11.90;;;;;;;;;;5009151;28;20037;-67
2022/01/08 05:47:21;;;;;;;39.88;11.50;;;;;;;;;;5009916;28;20386;-67
2022/01/08 05:49:46;;;;;;;32.92;12.75;;;;;;;;;;5011029;28;20057;-67
2022/01/08 05:52:11;;;;;;;23.75;11.63;;;;;;;;;;5010242;28;20052;-66
2022/01/08 05:54:37;;;;;;;36.30;12.38;;;;;;;;;;5011163;28;20025;-67
2022/01/08 05:57:02;;;;;;;32.15;12.90;;;;;;;;;;5009731;28;20030;-67
2022/01/08 05:59:27;;;;;;;36.25;13.88;;;;;;;;;;5010222;28;20017;-67
2022/01/08 06:01:53;;;;;;;32.22;12.52;;;;;;;;;;5007407;28;20022;-67
2022/01/08 06:04:18;;;;;;;39.20;14.13;;;;;;;;;;5010150;28;20026;-66
2022/01/08 06:06:44;;;;;;;27.50;13.07;;;;;;;;;;5010190;28;20018;-66
2022/01/08 06:09:09;;;;;;;39.90;13.23;;;;;;;;;;5010008;28;20401;-67
2022/01/08 06:11:34;;;;;;;34.22;13.43;;;;;;;;;;5009799;28;20010;-67
2022/01/08 06:14:01;;;;;;;30.75;13.82;;;;;;;;;;5010241;28;20073;-67
2022/01/08 06:16:32;;;;;;;32.55;15.15;;;;;;;;;;5010367;28;20021;-67
2022/01/08 06:18:57;;;;;;;40.45;15.23;;;;;;;;;;5010090;28;20026;-67
2022/01/08 06:21:22;;;;;;;38.83;16.52;;;;;;;;;;5011187;28;20026;-67
2022/01/08 06:23:48;;;;;;;40.03;15.35;;;;;;;;;;5010480;28;20030;-67
2022/01/08 06:26:13;;;;;;;43.72;13.85;;;;;;;;;;5006898;28;20241;-67
2022/01/08 06:28:38;;;;;;;38.15;14.18;;;;;;;;;;5010715;28;20092;-67
2022/01/08 06:31:03;;;;;;;34.00;13.60;;;;;;;;;;5010118;28;20018;-67
2022/01/08 06:33:28;;;;;;;31.27;13.45;;;;;;;;;;5010659;28;20307;-67
2022/01/08 06:35:54;;;;;;;34.53;13.38;;;;;;;;;;5009439;28;20105;-67
2022/01/08 06:38:19;;;;;;;36.25;13.38;;;;;;;;;;5009982;28;20093;-67
2022/01/08 06:40:44;;;;;;;36.95;13.68;;;;;;;;;;5010218;28;20026;-67
2022/01/08 06:43:10;;;;;;;39.30;13.25;;;;;;;;;;5010144;28;20030;-67
2022/01/08 06:45:35;;;;;;;40.72;14.90;;;;;;;;;;5009745;28;20044;-67
2022/01/08 06:48:00;;;;;;;38.38;13.90;;;;;;;;;;5010037;28;20026;-67
2022/01/08 06:50:27;;;;;;;34.13;14.30;;;;;;;;;;5014225;28;20067;-66
2022/01/08 06:52:52;;;;;;;41.75;14.15;;;;;;;;;;5016026;28;20030;-67
2022/01/08 06:55:17;;;;;;;36.72;14.68;;;;;;;;;;5016495;28;20026;-66
2022/01/08 06:57:44;;;;;;;41.28;15.70;;;;;;;;;;5016279;28;20033;-67
2022/01/08 07:00:09;;;;;;;39.53;15.00;;;;;;;;;;5016374;28;20022;-66
2022/01/08 07:02:34;;;;;;;39.28;14.60;;;;;;;;;;5016214;28;20382;-67
2022/01/08 07:05:00;;;;;;;42.53;15.02;;;;;;;;;;5016298;28;20030;-67
2022/01/08 07:07:25;;;;;;;40.95;13.95;;;;;;;;;;5016133;28;20029;-66
2022/01/08 07:09:51;;;;;;;35.15;12.32;;;;;;;;;;5016429;28;20026;-66
2022/01/08 07:12:16;;;;;;;34.88;12.90;;;;;;;;;;5016846;28;20037;-66
2022/01/08 07:14:41;;;;;;;37.43;14.60;;;;;;;;;;5016777;28;20120;-66
2022/01/08 07:17:06;;;;;;;30.27;14.00;;;;;;;;;;5015937;28;20280;-66
2022/01/08 07:19:31;;;;;;;36.88;12.38;;;;;;;;;;5016211;28;20033;-66
2022/01/08 07:21:57;;;;;;;40.30;13.95;;;;;;;;;;5016106;28;20022;-66
2022/01/08 07:24:22;;;;;;;29.13;11.25;;;;;;;;;;5016489;28;20025;-66
2022/01/08 07:26:47;;;;;;;38.17;13.93;;;;;;;;;;5016250;28;20152;-67
2022/01/08 07:29:12;;;;;;;30.88;12.02;;;;;;;;;;5015620;28;20425;-67
2022/01/08 07:31:37;;;;;;;44.60;13.63;;;;;;;;;;5016470;28;20030;-67
2022/01/08 07:34:03;;;;;;;40.85;13.23;;;;;;;;;;5016446;28;20121;-66
2022/01/08 07:36:28;;;;;;;41.40;14.23;;;;;;;;;;5016132;28;20037;-66
2022/01/08 07:38:53;;;;;;;33.30;13.15;;;;;;;;;;5016067;28;20125;-66
2022/01/08 07:41:18;;;;;;;33.10;12.90;;;;;;;;;;5016108;28;20061;-67
2022/01/08 07:43:43;;;;;;;29.50;9.93;;;;;;;;;;5019573;28;20104;-66
2022/01/08 07:46:08;;;;;;;36.03;14.52;;;;;;;;;;5016238;28;20030;-66
2022/01/08 07:48:34;;;;;;;16.38;8.10;;;;;;;;;;5016386;28;20533;-66
2022/01/08 07:50:59;;;;;;;29.23;13.60;;;;;;;;;;5015897;28;20026;-66
2022/01/08 07:53:25;;;;;;;14.55;6.78;;;;;;;;;;5016361;28;20030;-66
2022/01/08 07:55:50;;;;;;;26.40;8.32;;;;;;;;;;5016510;28;20026;-66
2022/01/08 07:58:20;;;;;;;39.22;12.30;;;;;;;;;;5016171;28;20176;-66
2022/01/08 08:00:46;;;;;;;28.58;11.48;;;;;;;;;;5014404;28;20652;-66
2022/01/08 08:03:11;;;;;;;29.90;12.27;;;;;;;;;;5012894;28;20033;-66
2022/01/08 08:05:36;;;;;;;36.97;10.85;;;;;;;;;;5012535;28;20121;-66
2022/01/08 08:08:01;;;;;;;27.30;11.23;;;;;;;;;;5012978;28;20022;-66
2022/01/08 08:10:28;;;;;;;34.38;14.27;;;;;;;;;;5012216;28;20030;-66
2022/01/08 08:12:55;;;;;;;32.58;13.25;;;;;;;;;;5012955;28;20133;-66
2022/01/08 08:15:21;;;;;;;41.85;14.07;;;;;;;;;;5012637;28;20029;-66
2022/01/08 08:17:46;;;;;;;48.85;14.70;;;;;;;;;;5012599;28;20534;-66
2022/01/08 08:20:11;;;;;;;55.22;16.30;;;;;;;;;;5012566;28;20030;-67
2022/01/08 08:22:37;;;;;;;33.08;13.35;;;;;;;;;;5012603;28;20041;-66
2022/01/08 08:25:02;;;;;;;39.00;14.52;;;;;;;;;;5012915;28;20378;-66
2022/01/08 08:27:29;;;;;;;41.92;16.95;;;;;;;;;;5012285;28;20188;-66
2022/01/08 08:29:54;;;;;;;42.70;15.95;;;;;;;;;;5012565;28;20022;-66
2022/01/08 08:32:20;;;;;;;49.28;16.35;;;;;;;;;;5012395;28;20026;-66
2022/01/08 08:34:45;;;;;;;35.88;15.48;;;;;;;;;;5012395;28;20028;-66
2022/01/08 08:37:10;;;;;;;42.45;14.45;;;;;;;;;;5012069;28;20018;-65
2022/01/08 08:39:35;;;;;;;31.88;14.05;;;;;;;;;;5012513;28;20108;-65
2022/01/08 08:42:00;;;;;;;38.47;13.73;;;;;;;;;;5009592;28;20026;-66
2022/01/08 08:44:27;;;;;;;40.15;12.70;;;;;;;;;;5012560;28;20394;-67
2022/01/08 08:46:52;;;;;;;45.92;13.80;;;;;;;;;;5011860;28;20096;-65
2022/01/08 08:49:17;;;;;;;42.55;15.32;;;;;;;;;;5011665;28;20413;-68
2022/01/08 08:51:42;;;;;;;43.53;14.75;;;;;;;;;;5011408;28;20014;-65
2022/01/08 08:54:07;;;;;;;37.13;16.33;;;;;;;;;;5012588;28;20025;-66
2022/01/08 08:56:32;;;;;;;31.58;11.38;;;;;;;;;;5012012;28;20025;-65
2022/01/08 08:58:58;;;;;;;49.53;15.85;;;;;;;;;;5008878;28;20036;-67
2022/01/08 09:01:23;;;;;;;43.08;15.55;;;;;;;;;;5009406;28;20100;-67
2022/01/08 09:03:49;;;;;;;36.40;13.27;;;;;;;;;;5009631;28;20128;-66
2022/01/08 09:06:14;;;;;;;38.67;13.00;;;;;;;;;;5009812;28;20709;-66
2022/01/08 09:08:39;;;;;;;27.73;12.47;;;;;;;;;;5008196;28;20025;-66
2022/01/08 09:11:04;;;;;;;37.55;13.60;;;;;;;;;;5036323;23;20316;-68
2022/01/08 09:13:29;;;;;;;23.00;9.20;;;;;;;;;;5023313;28;20096;-67
2022/01/08 09:15:54;;;;;;;30.80;9.93;;;;;;;;;;5028850;28;20102;-67
2022/01/08 09:18:20;;;;;;;35.80;9.10;;;;;;;;;;5019757;28;20493;-67
2022/01/08 09:20:46;;;;;;;33.25;12.77;;;;;;;;;;5020556;28;20485;-67
2022/01/08 09:23:11;;;;;;;31.98;10.75;;;;;;;;;;5009267;28;20433;-68
2022/01/08 09:25:36;;;;;;;32.38;7.63;;;;;;;;;;5008707;28;20061;-67
2022/01/08 09:28:01;;;;;;;32.05;10.70;;;;;;;;;;5007263;28;20525;-67
2022/01/08 09:30:27;;;;;;;33.70;11.63;;;;;;;;;;5004705;28;20026;-67
2022/01/08 09:32:52;;;;;;;20.83;6.47;;;;;;;;;;5008857;28;20067;-67
2022/01/08 09:35:18;;;;;;;27.17;10.65;;;;;;;;;;5009541;28;20526;-67
2022/01/08 09:37:43;;;;;;;13.88;6.55;;;;;;;;;;5009705;28;20037;-68
2022/01/08 09:40:11;;;;;;;28.23;10.82;;;;;;;;;;5009943;28;20028;-67
2022/01/08 09:42:36;;;;;;;29.00;11.15;;;;;;;;;;5011822;28;20030;-68
2022/01/08 09:45:02;;;;;;;27.23;4.78;;;;;;;;;;5009441;28;20045;-67
2022/01/08 09:47:28;;;;;;;27.83;11.23;;;;;;;;;;5008669;28;20470;-67
2022/01/08 09:49:53;;;;;;;19.17;8.57;;;;;;;;;;5009658;28;20117;-67
2022/01/08 09:52:19;;;;;;;31.88;9.40;;;;;;;;;;5009335;28;20050;-67
2022/01/08 09:54:44;;;;;;;19.83;8.88;;;;;;;;;;5008902;28;20092;-68
2022/01/08 09:57:09;;;;;;;31.25;8.10;;;;;;;;;;5008283;28;20128;-68
2022/01/08 09:59:34;;;;;;;10.90;4.22;;;;;;;;;;5008661;28;20434;-68
2022/01/08 10:02:00;;;;;;;16.55;6.13;;;;;;;;;;5009315;28;20041;-67
2022/01/08 10:04:26;;;;;;;7.70;2.95;;;;;;;;;;5007730;28;20100;-68
2022/01/08 10:07:11;;;;;;;21.70;4.97;;;;;;;;;;5008558;28;20068;-68
2022/01/08 10:09:37;;;;;;;18.20;5.65;;;;;;;;;;5005160;28;20038;-67
2022/01/08 10:12:02;;;;;;;29.15;8.52;;;;;;;;;;5001963;28;20033;-67
2022/01/08 10:17:13;;;;;;;12.15;4.68;;;;;;;;;;5011354;28;20421;-67
2022/01/08 10:17:39;;;;;;;21.73;8.27;;;;;;;;;;5007572;28;20030;-68
2022/01/08 10:20:04;;;;;;;17.30;5.30;;;;;;;;;;5004458;28;20026;-67
2022/01/08 10:22:29;;;;;;;18.75;6.25;;;;;;;;;;5005380;28;20041;-68
2022/01/08 10:25:13;;;;;;;13.23;4.60;;;;;;;;;;5008038;28;20033;-67
2022/01/08 10:27:38;;;;;;;20.38;7.70;;;;;;;;;;5005915;28;20411;-67
2022/01/08 10:30:04;;;;;;;19.23;7.00;;;;;;;;;;5006502;28;20547;-68
2022/01/08 10:32:29;;;;;;;5.68;3.42;;;;;;;;;;5008357;28;20026;-67
2022/01/08 10:34:54;;;;;;;21.37;7.73;;;;;;;;;;5006677;28;20021;-67
2022/01/08 10:37:20;;;;;;;17.90;6.30;;;;;;;;;;5009413;28;20277;-67
2022/01/08 10:39:52;;;;;;;9.63;4.75;;;;;;;;;;4990901;28;20322;-67
2022/01/08 10:42:18;;;;;;;12.40;4.75;;;;;;;;;;5009776;28;20022;-67
2022/01/08 10:44:44;;;;;;;15.00;4.53;;;;;;;;;;5009436;28;20022;-67
2022/01/08 10:47:13;;;;;;;20.40;6.18;;;;;;;;;;5009324;28;20375;-67
2022/01/08 10:49:56;;;;;;;14.65;4.57;;;;;;;;;;5009452;28;20014;-67
2022/01/08 10:52:21;;;;;;;8.95;4.28;;;;;;;;;;4999393;28;20434;-68
2022/01/08 10:54:47;;;;;;;10.32;4.43;;;;;;;;;;5009297;28;20193;-67
2022/01/08 10:57:14;;;;;;;15.68;2.88;;;;;;;;;;5010490;28;20025;-68
2022/01/08 10:59:39;;;;;;;7.47;2.30;;;;;;;;;;5009243;28;20144;-69
2022/01/08 11:02:09;;;;;;;13.13;3.80;;;;;;;;;;5008800;28;20112;-68
2022/01/08 11:04:34;;;;;;;12.10;3.00;;;;;;;;;;5009810;28;20028;-68
2022/01/08 11:07:03;;;;;;;8.10;3.70;;;;;;;;;;5007989;28;20280;-69
2022/01/08 11:09:29;;;;;;;11.20;3.83;;;;;;;;;;5009616;28;20033;-69
2022/01/08 11:11:56;;;;;;;9.15;3.00;;;;;;;;;;5008572;28;20022;-68
2022/01/08 11:14:48;;;;;;;5.28;2.72;;;;;;;;;;4997963;28;20101;-68
2022/01/08 11:17:10;;;;;;;6.22;2.40;;;;;;;;;;5009462;28;20045;-68
2022/01/08 11:19:36;;;;;;;9.63;4.15;;;;;;;;;;5009612;28;20030;-68
2022/01/08 11:22:02;;;;;;;8.07;3.28;;;;;;;;;;5009681;28;20041;-68
2022/01/08 11:24:27;;;;;;;1.38;1.27;;;;;;;;;;5008427;28;20119;-68
2022/01/08 11:26:54;;;;;;;11.15;3.30;;;;;;;;;;5008952;28;20132;-68
2022/01/08 11:29:21;;;;;;;9.98;3.55;;;;;;;;;;5008295;28;20679;-68
2022/01/08 11:31:48;;;;;;;15.15;5.45;;;;;;;;;;4991402;28;20018;-68
2022/01/08 11:34:14;;;;;;;7.38;2.95;;;;;;;;;;5009662;28;20026;-68
2022/01/08 11:36:39;;;;;;;10.10;3.30;;;;;;;;;;5007625;28;20152;-68
2022/01/08 11:39:08;;;;;;;7.45;2.90;;;;;;;;;;5011932;28;20029;-68
2022/01/08 11:41:33;;;;;;;11.10;3.60;;;;;;;;;;5012365;28;20064;-68
2022/01/08 11:43:59;;;;;;;15.57;3.63;;;;;;;;;;5010670;28;20061;-68
2022/01/08 11:46:25;;;;;;;8.80;3.45;;;;;;;;;;5012597;28;20018;-68
2022/01/08 11:48:53;;;;;;;8.63;2.58;;;;;;;;;;5011743;28;20348;-68
2022/01/08 11:51:27;;;;;;;6.05;3.03;;;;;;;;;;4993232;28;20556;-68
2022/01/08 11:53:57;;;;;;;12.93;4.90;;;;;;;;;;5011373;28;20100;-68
2022/01/08 11:56:40;;;;;;;6.90;3.75;;;;;;;;;;4991125;28;20018;-68
2022/01/08 11:59:11;;;;;;;4.45;2.38;;;;;;;;;;5010156;28;20025;-68
2022/01/08 12:01:37;;;;;;;7.43;2.83;;;;;;;;;;4992539;28;20475;-68
2022/01/08 12:04:03;;;;;;;13.98;5.88;;;;;;;;;;5011326;28;20029;-68
2022/01/08 12:06:32;;;;;;;7.85;2.72;;;;;;;;;;5011207;28;20375;-68
2022/01/08 12:09:20;;;;;;;10.03;4.23;;;;;;;;;;5011734;28;20105;-68
2022/01/08 12:11:46;;;;;;;14.68;3.83;;;;;;;;;;5009615;28;20474;-68
2022/01/08 12:14:21;;;;;;;7.78;3.15;;;;;;;;;;5011284;28;20037;-68
2022/01/08 12:16:50;;;;;;;5.68;2.63;;;;;;;;;;5011452;28;20115;-68
2022/01/08 12:19:30;;;;;;;16.58;4.90;;;;;;;;;;5008267;28;20021;-68
2022/01/08 12:21:55;;;;;;;4.30;2.43;;;;;;;;;;5008347;28;20030;-68
2022/01/08 12:24:26;;;;;;;13.25;3.15;;;;;;;;;;4992040;28;20034;-68
2022/01/08 12:26:52;;;;;;;6.47;2.92;;;;;;;;;;5006563;28;20123;-68
2022/01/08 12:29:37;;;;;;;8.48;1.73;;;;;;;;;;5011030;28;20022;-68
2022/01/08 12:32:21;;;;;;;16.42;3.53;;;;;;;;;;5011634;28;20619;-68
2022/01/08 12:34:49;;;;;;;9.77;3.63;;;;;;;;;;5000760;28;20022;-68
2022/01/08 12:37:15;;;;;;;7.65;2.60;;;;;;;;;;4991712;28;20023;-68
2022/01/08 12:39:43;;;;;;;13.18;3.25;;;;;;;;;;5006292;28;20022;-68
2022/01/08 12:42:24;;;;;;;4.32;1.33;;;;;;;;;;5012769;28;20025;-68
2022/01/08 12:44:58;;;;;;;2.83;1.52;;;;;;;;;;5005712;28;20026;-68
2022/01/08 12:47:42;;;;;;;15.77;2.67;;;;;;;;;;5013758;28;20018;-68
2022/01/08 12:50:26;;;;;;;9.55;2.92;;;;;;;;;;4993767;28;20026;-68
2022/01/08 12:53:03;;;;;;;11.55;3.65;;;;;;;;;;5009785;28;20017;-68
2022/01/08 12:55:30;;;;;;;10.90;3.63;;;;;;;;;;5008141;28;20116;-67
2022/01/08 12:57:55;;;;;;;11.27;3.90;;;;;;;;;;5009714;28;20126;-67
2022/01/08 13:00:20;;;;;;;16.13;3.30;;;;;;;;;;5008597;28;20022;-67
2022/01/08 13:02:46;;;;;;;5.88;2.33;;;;;;;;;;5010552;28;20026;-67
2022/01/08 13:05:12;;;;;;;6.20;3.30;;;;;;;;;;5006381;28;20026;-67
2022/01/08 13:07:46;;;;;;;6.28;2.00;;;;;;;;;;5003655;28;20104;-68
2022/01/08 13:10:11;;;;;;;8.80;2.10;;;;;;;;;;5008833;28;20116;-67
2022/01/08 13:12:36;;;;;;;4.53;1.92;;;;;;;;;;5009572;28;20108;-67
2022/01/08 13:15:02;;;;;;;3.60;2.17;;;;;;;;;;4992080;28;20013;-67
2022/01/08 13:17:27;;;;;;;5.68;1.92;;;;;;;;;;5006594;28;20765;-67
2022/01/08 13:20:00;;;;;;;7.33;1.93;;;;;;;;;;5013072;28;20038;-68
2022/01/08 13:22:26;;;;;;;6.40;3.28;;;;;;;;;;5004685;28;20765;-67
2022/01/08 13:24:52;;;;;;;11.73;2.45;;;;;;;;;;5005409;28;20102;-67
2022/01/08 13:27:20;;;;;;;9.60;3.40;;;;;;;;;;5007523;28;20494;-67
2022/01/08 13:29:46;;;;;;;8.15;3.30;;;;;;;;;;5007851;28;20064;-67
2022/01/08 13:32:15;;;;;;;11.23;3.10;;;;;;;;;;5011627;28;20100;-67
2022/01/08 13:34:44;;;;;;;6.40;2.65;;;;;;;;;;5010735;28;20049;-67
2022/01/08 13:37:20;;;;;;;8.25;3.83;;;;;;;;;;5011127;28;20108;-67
2022/01/08 13:39:50;;;;;;;12.65;3.22;;;;;;;;;;5017712;28;20377;-67
2022/01/08 13:42:23;;;;;;;6.10;2.50;;;;;;;;;;5011710;28;20021;-67
2022/01/08 13:44:55;;;;;;;11.77;2.22;;;;;;;;;;5011473;28;20565;-67
2022/01/08 13:47:29;;;;;;;7.45;3.10;;;;;;;;;;5011022;28;20030;-67
2022/01/08 13:49:56;;;;;;;8.43;3.40;;;;;;;;;;5010351;28;21787;-67
2022/01/08 13:52:45;;;;;;;11.85;3.05;;;;;;;;;;5011473;28;20017;-67
2022/01/08 13:55:26;;;;;;;6.18;2.08;;;;;;;;;;5010864;28;20064;-67
2022/01/08 13:58:01;;;;;;;8.82;2.78;;;;;;;;;;5029711;28;20490;-67
2022/01/08 14:00:31;;;;;;;9.15;3.22;;;;;;;;;;5005922;28;20026;-68
2022/01/08 14:02:57;;;;;;;5.28;2.65;;;;;;;;;;5007103;28;20068;-68
2022/01/08 14:05:22;;;;;;;7.72;2.47;;;;;;;;;;5011194;28;20042;-68
2022/01/08 14:07:48;;;;;;;9.32;2.67;;;;;;;;;;5011813;28;20029;-68
2022/01/08 14:10:14;;;;;;;6.97;2.13;;;;;;;;;;5014770;28;20037;-68
2022/01/08 14:12:39;;;;;;;3.67;2.22;;;;;;;;;;5011839;28;20073;-68
2022/01/08 14:15:06;;;;;;;4.38;1.33;;;;;;;;;;5009886;28;20164;-68
2022/01/08 14:17:32;;;;;;;8.27;3.05;;;;;;;;;;5008969;28;20197;-68
2022/01/08 14:19:58;;;;;;;7.47;2.35;;;;;;;;;;5007651;28;20022;-68
2022/01/08 14:22:24;;;;;;;8.13;3.38;;;;;;;;;;5014997;28;20045;-68
2022/01/08 14:24:51;;;;;;;11.38;2.55;;;;;;;;;;5002145;28;20669;-68
2022/01/08 14:27:18;;;;;;;8.20;2.03;;;;;;;;;;5010508;28;20022;-68
2022/01/08 14:29:44;;;;;;;7.60;2.83;;;;;;;;;;5010197;28;20487;-68
2022/01/08 14:32:10;;;;;;;11.00;3.15;;;;;;;;;;5009320;28;20018;-68
2022/01/08 14:34:49;;;;;;;4.20;2.25;;;;;;;;;;5008212;28;20383;-68
2022/01/08 14:37:28;;;;;;;6.32;3.05;;;;;;;;;;5010355;28;20033;-68
2022/01/08 14:39:54;;;;;;;10.20;3.37;;;;;;;;;;5009852;28;20022;-68
2022/01/08 14:42:19;;;;;;;8.00;3.38;;;;;;;;;;5010517;28;20382;-68
2022/01/08 14:45:03;;;;;;;3.20;1.77;;;;;;;;;;5010336;28;20022;-68